CDT,Max TemperatureF,Mean TemperatureF,Min TemperatureF,Max Dew PointF,MeanDew PointF,Min DewpointF,Max Humidity, Mean Humidity, Min Humidity, Max Sea Level PressureIn, Mean Sea Level PressureIn, Min Sea Level PressureIn, Max VisibilityMiles, Mean VisibilityMiles, Min VisibilityMiles, Max Wind SpeedMPH, Mean Wind SpeedMPH, Max Gust SpeedMPH,PrecipitationIn, CloudCover, Events, WindDirDegrees
2013-4-1,61,54,46,47,42,34,86,68,49,30.16,30.08,29.94,10,10,10,21,9,30,0.00,0,,46
2013-4-2,47,44,41,33,30,28,70,62,53,30.32,30.26,30.18,10,10,10,18,10,25,0.01,7,Rain,45
2013-4-3,51,46,40,30,27,25,62,50,38,30.29,30.23,30.17,10,10,10,23,13,30,T,3,Rain,50
2013-4-4,50,45,39,44,36,27,96,71,45,30.16,30.07,30.02,10,9,5,16,8,35,0.03,7,Rain,39
2013-4-5,68,51,33,42,35,29,92,58,24,30.18,30.12,30.08,10,10,6,15,3,30,0.00,0,,156
2013-4-6,73,57,40,49,43,38,89,60,31,30.09,30.00,29.89,10,10,10,25,11,35,0.00,0,,195
2013-4-7,71,65,59,57,54,47,80,68,56,30.00,29.95,29.89,10,10,10,23,12,31,0.00,6,,200
2013-4-8,75,68,60,59,56,53,84,71,57,29.92,29.88,29.84,10,10,10,30,11,38,0.00,5,,179
2013-4-9,83,72,60,65,61,55,90,71,51,29.96,29.89,29.84,10,10,10,28,12,36,0.00,4,,174
2013-4-10,83,74,65,68,65,62,100,79,58,29.88,29.77,29.64,10,8,1,41,16,58,1.36,6,Rain-Thunderstorm,175
2013-4-11,59,51,43,65,45,38,86,73,59,29.83,29.75,29.69,10,10,3,25,8,43,0.05,6,Rain,282
2013-4-12,65,51,37,43,38,34,92,63,34,30.02,29.90,29.83,10,10,10,21,7,31,0.00,0,,287
2013-4-13,67,53,38,49,41,35,86,65,43,30.12,30.03,29.92,10,10,10,13,4,24,0.00,0,,89
2013-4-14,73,61,48,58,51,44,86,72,57,29.91,29.80,29.71,10,10,10,26,11,31,0.00,3,,141
2013-4-15,78,69,59,64,58,54,88,82,73,29.90,29.86,29.80,10,10,10,22,11,33,0.00,7,,166
2013-4-16,86,76,65,,,,,,,,,,,,,23,10,32,0.00,,,
2013-4-17,86,77,68,,,,,,,,,,,,,24,18,32,0.00,,,
2013-4-18,79,62,45,65,54,34,96,78,60,29.88,29.72,29.65,10,5,0,30,18,39,1.82,8,Fog-Rain-Thunderstorm,273
2013-4-19,56,48,39,37,31,26,92,62,32,30.14,30.02,29.88,10,10,10,23,11,41,0.00,4,,282
2013-4-20,67,52,36,46,39,35,92,62,32,30.27,30.21,30.15,10,10,10,8,4,,0.00,0,,111
2013-4-21,67,57,47,44,42,38,86,62,37,30.37,30.28,30.21,10,10,10,16,9,41,0.00,0,,57
2013-4-22,74,60,46,50,45,38,89,62,35,30.23,30.12,30.01,10,10,10,17,7,30,0.00,0,,101
2013-4-23,77,64,50,61,56,46,93,72,50,30.02,29.95,29.86,10,10,10,29,13,37,0.00,5,,201
2013-4-24,58,49,40,45,40,35,96,70,43,30.30,30.14,29.95,10,9,5,18,6,28,0.12,5,Rain,333
2013-4-25,68,52,35,47,38,30,100,65,30,30.39,30.33,30.29,10,10,10,12,3,26,0.00,0,,171
2013-4-26,62,55,48,52,48,45,96,80,64,30.41,30.30,30.22,10,9,2,22,9,41,0.29,6,Rain-Thunderstorm,68
2013-4-27,62,57,52,60,55,50,100,95,90,30.22,30.05,29.92,10,6,1,16,7,29,0.97,8,Rain-Thunderstorm,57
2013-4-28,66,57,48,56,53,49,93,80,67,30.00,29.97,29.94,10,10,10,15,5,29,0.00,6,,272
2013-4-29,78,62,46,61,51,44,100,77,54,30.01,29.94,29.86,10,5,0,16,6,,0.00,0,Fog,157
2013-4-30,83,68,53,61,56,52,93,64,34,29.95,29.91,29.88,10,10,10,15,4,,0.00,0,,144